Time;durP1;ratioP1;P1;durP2;ratioP2;P2;SDS_P1;SDS_P2;PMS_P1;PMS_P2;Temp;Humidity;BMP_temperature;BMP_pressure;BME280_temperature;BME280_humidity;BME280_pressure;Samples;Min_cycle;Max_cycle;Signal;HPM_P1;HPM_P2
2023/03/28 00:02:02;;;;;;;;;;;;;;;12.24;46.44;100935.53;4973821;28;19922;-86
2023/03/28 00:04:30;;;;;;;;;;;;;;;12.22;47.39;100932.00;4978132;28;19932;-84
2023/03/28 00:06:58;;;;;;;;;;;;;;;12.25;47.96;100926.91;4971548;28;19930;-84
2023/03/28 00:09:26;;;;;;;;;;;;;;;12.28;47.49;100922.66;4974640;28;20013;-83
2023/03/28 00:11:55;;;;;;;;;;;;;;;12.29;48.47;100919.22;4973648;28;19922;-83
2023/03/28 00:14:23;;;;;;;;;;;;;;;12.31;47.62;100917.56;4980299;28;19922;-84
2023/03/28 00:16:51;;;;;;;;;;;;;;;12.35;48.38;100909.00;4975506;28;20041;-84
2023/03/28 00:19:22;;;;;;;;;;;;;;;12.40;48.39;100903.06;4974347;28;20753;-84
2023/03/28 00:21:51;;;;;;;;;;;;;;;12.34;48.21;100891.66;4968773;28;19926;-84
2023/03/28 00:24:20;;;;;;;;;;;;;;;12.34;50.96;100899.44;4980243;28;19926;-86
2023/03/28 00:26:53;;;;;;;;;;;;;;;12.29;46.70;100893.28;4972160;28;19922;-85
2023/03/28 00:29:21;;;;;;;;;;;;;;;12.31;44.17;100890.72;4966924;28;19923;-84
2023/03/28 00:31:49;;;;;;;;;;;;;;;12.29;45.38;100890.69;4975900;28;19932;-84
2023/03/28 00:34:17;;;;;;;;;;;;;;;12.21;44.93;100892.22;4979898;28;20029;-84
2023/03/28 00:36:47;;;;;;;;;;;;;;;12.12;45.08;100889.41;4976118;28;19922;-84
2023/03/28 00:39:15;;;;;;;;;;;;;;;12.09;45.93;100879.81;4977302;28;19922;-85
2023/03/28 00:41:44;;;;;;;;;;;;;;;12.09;46.47;100879.81;4973345;28;20063;-82
2023/03/28 00:44:27;;;;;;;;;;;;;;;12.01;44.81;100877.88;4969994;28;20603;-84
2023/03/28 00:46:55;;;;;;;;;;;;;;;11.90;44.41;100873.28;4977090;28;19926;-84
2023/03/28 00:49:25;;;;;;;;;;;;;;;11.79;45.25;100877.28;4971733;28;19933;-85
2023/03/28 00:51:57;;;;;;;;;;;;;;;11.74;45.39;100866.78;4968248;28;20345;-83
2023/03/28 00:54:27;;;;;;;;;;;;;;;11.71;45.51;100871.03;4966691;28;19926;-85
2023/03/28 00:56:57;;;;;;;;;;;;;;;11.65;46.92;100860.47;4968857;28;19926;-85
2023/03/28 00:59:27;;;;;;;;;;;;;;;11.69;46.32;100854.53;4979190;28;19922;-85
2023/03/28 01:01:55;;;;;;;;;;;;;;;11.71;45.94;100840.78;4973993;28;20411;-85
2023/03/28 01:04:25;;;;;;;;;;;;;;;11.75;47.20;100836.56;4965713;28;19929;-84
2023/03/28 01:06:57;;;;;;;;;;;;;;;11.73;47.64;100848.63;4980756;28;19949;-86
2023/03/28 01:09:25;;;;;;;;;;;;;;;11.65;47.61;100839.75;4979846;28;19936;-84
2023/03/28 01:11:54;;;;;;;;;;;;;;;11.66;48.36;100836.31;4972063;28;19922;-83
2023/03/28 01:14:25;;;;;;;;;;;;;;;11.66;47.43;100823.34;4970502;28;19936;-83
2023/03/28 01:16:55;;;;;;;;;;;;;;;11.65;47.92;100830.25;4974983;28;19926;-84
2023/03/28 01:19:27;;;;;;;;;;;;;;;11.61;47.38;100822.34;4973057;28;19925;-84
2023/03/28 01:22:23;;;;;;;;;;;;;;;11.58;47.82;100798.97;4968942;28;19985;-81
2023/03/28 01:25:24;;;;;;;;;;;;;;;11.51;44.75;100793.59;4964375;28;19989;-84
2023/03/28 01:28:00;;;;;;;;;;;;;;;11.45;49.68;100801.25;4978507;28;19922;-89
2023/03/28 01:30:48;;;;;;;;;;;;;;;11.35;47.82;100801.81;4966676;28;19968;-86
2023/03/28 01:33:39;;;;;;;;;;;;;;;11.27;46.27;100800.72;4961483;28;20395;-89
2023/03/28 01:36:22;;;;;;;;;;;;;;;11.14;48.44;100804.69;4971697;28;20450;-89
2023/03/28 01:38:55;;;;;;;;;;;;;;;11.07;50.02;100792.41;4971687;28;19996;-88
2023/03/28 01:41:27;;;;;;;;;;;;;;;10.97;49.16;100786.13;4977834;28;19923;-86
2023/03/28 01:43:59;;;;;;;;;;;;;;;10.81;48.97;100799.41;4977630;28;20061;-84
2023/03/28 01:46:30;;;;;;;;;;;;;;;10.67;50.05;100783.50;4969113;28;19932;-87
2023/03/28 01:49:00;;;;;;;;;;;;;;;10.62;47.82;100767.81;4966283;28;20332;-86
2023/03/28 01:51:34;;;;;;;;;;;;;;;10.52;50.60;100764.94;4979541;28;20162;-84
2023/03/28 01:54:13;;;;;;;;;;;;;;;10.47;50.27;100769.97;4975392;28;19922;-87
2023/03/28 01:56:43;;;;;;;;;;;;;;;10.43;49.75;100766.41;4983310;28;19921;-88
2023/03/28 01:59:15;;;;;;;;;;;;;;;10.44;46.85;100764.69;4974884;28;19961;-87
2023/03/28 02:01:49;;;;;;;;;;;;;;;10.45;49.63;100754.41;4980362;28;19950;-88
2023/03/28 02:04:19;;;;;;;;;;;;;;;10.40;49.52;100743.06;4975875;28;19925;-89
2023/03/28 02:06:47;;;;;;;;;;;;;;;10.39;52.86;100736.09;4973246;28;19922;-85
2023/03/28 02:09:18;;;;;;;;;;;;;;;10.39;53.34;100727.47;4980421;28;19926;-82
2023/03/28 02:11:48;;;;;;;;;;;;;;;10.30;52.41;100717.72;4972701;28;19958;-87
2023/03/28 02:14:18;;;;;;;;;;;;;;;10.27;53.97;100718.47;4977237;28;19929;-87
2023/03/28 02:16:48;;;;;;;;;;;;;;;10.11;55.72;100726.59;4977255;28;19930;-85
2023/03/28 02:19:23;;;;;;;;;;;;;;;9.91;55.16;100732.84;4971210;28;19970;-88
2023/03/28 02:21:53;;;;;;;;;;;;;;;9.86;58.06;100724.97;4975211;28;19937;-86
2023/03/28 02:24:22;;;;;;;;;;;;;;;9.76;55.13;100728.97;4981069;28;19969;-87
2023/03/28 02:26:57;;;;;;;;;;;;;;;9.75;57.91;100727.19;4977268;28;19926;-86
2023/03/28 02:29:27;;;;;;;;;;;;;;;9.71;58.45;100725.38;4977201;28;19926;-91
2023/03/28 02:31:57;;;;;;;;;;;;;;;9.58;58.66;100733.53;4975132;28;20575;-86
2023/03/28 02:34:25;;;;;;;;;;;;;;;9.53;61.53;100730.81;4979443;28;19937;-89
2023/03/28 02:36:56;;;;;;;;;;;;;;;9.51;61.29;100708.34;4977230;28;19929;-87
2023/03/28 02:39:37;;;;;;;;;;;;;;;9.51;64.10;100706.63;4969462;28;19925;-88
2023/03/28 02:42:19;;;;;;;;;;;;;;;9.56;62.98;100714.53;4973323;28;19921;-89
2023/03/28 02:45:00;;;;;;;;;;;;;;;9.57;62.07;100716.25;4977874;28;19926;-85
2023/03/28 02:47:34;;;;;;;;;;;;;;;9.41;59.59;100709.72;4977325;28;19954;-84
2023/03/28 02:50:07;;;;;;;;;;;;;;;9.41;61.71;100700.28;4970457;28;20010;-86
2023/03/28 02:52:40;;;;;;;;;;;;;;;9.34;64.20;100693.13;4973114;28;19926;-87
2023/03/28 02:55:16;;;;;;;;;;;;;;;9.24;65.35;100696.25;4971686;28;19930;-87
2023/03/28 02:57:46;;;;;;;;;;;;;;;9.09;66.75;100699.16;4977935;28;20368;-86
2023/03/28 03:00:17;;;;;;;;;;;;;;;8.98;66.74;100693.66;4977286;28;19922;-85
2023/03/28 03:02:46;;;;;;;;;;;;;;;8.96;67.60;100686.69;4979205;28;20009;-84
2023/03/28 03:05:14;;;;;;;;;;;;;;;8.81;70.69;100679.25;4972140;28;20485;-82
2023/03/28 03:07:43;;;;;;;;;;;;;;;8.82;69.99;100691.34;4966384;28;20503;-87
2023/03/28 03:10:13;;;;;;;;;;;;;;;8.78;68.97;100684.31;4967066;28;19926;-85
2023/03/28 03:12:40;;;;;;;;;;;;;;;8.74;69.06;100678.16;4968881;28;20373;-87
2023/03/28 03:15:09;;;;;;;;;;;;;;;8.62;69.65;100663.97;4976196;28;19929;-85
2023/03/28 03:17:37;;;;;;;;;;;;;;;8.52;70.17;100661.06;4965105;28;20008;-84
2023/03/28 03:20:06;;;;;;;;;;;;;;;8.39;70.28;100653.66;4975896;28;19921;-84
2023/03/28 03:22:35;;;;;;;;;;;;;;;8.37;71.75;100645.00;4964248;28;19938;-80
2023/03/28 03:25:05;;;;;;;;;;;;;;;8.38;72.24;100634.75;4971199;28;19938;-82
2023/03/28 03:27:35;;;;;;;;;;;;;;;8.36;72.52;100627.75;4962770;28;19946;-85
2023/03/28 03:30:03;;;;;;;;;;;;;;;8.14;75.55;100611.50;4971537;28;19926;-83
2023/03/28 03:32:32;;;;;;;;;;;;;;;8.16;73.97;100625.34;4970315;28;19926;-86
2023/03/28 03:35:00;;;;;;;;;;;;;;;8.17;74.29;100613.31;4971563;28;20029;-86
2023/03/28 03:37:28;;;;;;;;;;;;;;;8.10;72.97;100609.63;4968993;28;19977;-86
2023/03/28 03:39:55;;;;;;;;;;;;;;;8.10;76.62;100598.47;4967423;28;19934;-86
2023/03/28 03:42:23;;;;;;;;;;;;;;;7.98;75.40;100580.84;4974383;28;20180;-82
2023/03/28 03:44:53;;;;;;;;;;;;;;;8.05;76.78;100590.56;4968693;28;19937;-87
2023/03/28 03:47:21;;;;;;;;;;;;;;;8.03;76.98;100591.31;4976474;28;19929;-86
2023/03/28 03:49:50;;;;;;;;;;;;;;;7.98;78.44;100592.03;4976002;28;19928;-83
2023/03/28 03:52:18;;;;;;;;;;;;;;;7.93;78.73;100587.53;4970863;28;19957;-82
2023/03/28 03:54:45;;;;;;;;;;;;;;;7.89;81.01;100588.25;4975434;28;20218;-83
2023/03/28 03:57:14;;;;;;;;;;;;;;;7.83;82.09;100572.53;4972288;28;19985;-84
2023/03/28 03:59:42;;;;;;;;;;;;;;;7.78;81.20;100580.09;4976064;28;19926;-81
2023/03/28 04:02:11;;;;;;;;;;;;;;;7.72;79.43;100575.59;4971631;28;20379;-84
2023/03/28 04:04:41;;;;;;;;;;;;;;;7.74;80.12;100578.22;4961317;28;19933;-84
2023/03/28 04:07:09;;;;;;;;;;;;;;;7.74;81.17;100579.13;4971672;28;19965;-87
2023/03/28 04:09:37;;;;;;;;;;;;;;;7.79;81.56;100576.72;4967145;28;19926;-83
2023/03/28 04:12:05;;;;;;;;;;;;;;;7.83;81.11;100582.84;4972842;28;19926;-85
2023/03/28 04:14:35;;;;;;;;;;;;;;;7.87;82.73;100589.88;4963847;28;19922;-84
2023/03/28 04:17:04;;;;;;;;;;;;;;;7.88;85.69;100589.03;4968410;28;20068;-84
2023/03/28 04:19:33;;;;;;;;;;;;;;;7.91;83.67;100590.03;4965178;28;19940;-84
2023/03/28 04:22:03;;;;;;;;;;;;;;;7.93;81.59;100582.38;4965330;28;19952;-83
2023/03/28 04:24:30;;;;;;;;;;;;;;;7.95;81.43;100575.59;4971843;28;19922;-84
2023/03/28 04:26:58;;;;;;;;;;;;;;;7.99;81.36;100572.28;4972722;28;19922;-86
2023/03/28 04:29:31;;;;;;;;;;;;;;;7.94;83.41;100559.22;4968383;28;20399;-87
2023/03/28 04:31:59;;;;;;;;;;;;;;;8.07;87.20;100549.41;4968618;28;19926;-87
2023/03/28 04:34:28;;;;;;;;;;;;;;;8.13;86.38;100540.19;4971381;28;20391;-87
2023/03/28 04:37:00;;;;;;;;;;;;;;;8.18;87.29;100533.50;4969683;28;20424;-87
2023/03/28 04:39:28;;;;;;;;;;;;;;;8.20;88.02;100528.41;4972200;28;19933;-88
2023/03/28 04:42:00;;;;;;;;;;;;;;;8.25;90.12;100526.84;4970135;28;19981;-87
2023/03/28 04:44:28;;;;;;;;;;;;;;;8.29;89.11;100527.81;4971928;28;20054;-87
2023/03/28 04:46:57;;;;;;;;;;;;;;;8.31;87.82;100526.19;4969559;28;19934;-88
2023/03/28 04:49:25;;;;;;;;;;;;;;;8.33;87.77;100509.06;4975285;28;19922;-87
2023/03/28 04:51:53;;;;;;;;;;;;;;;8.35;87.09;100502.25;4963242;28;19965;-89
2023/03/28 04:54:23;;;;;;;;;;;;;;;8.36;87.47;100499.75;4970125;28;19930;-88
2023/03/28 04:56:51;;;;;;;;;;;;;;;8.37;88.21;100496.34;4974693;28;19922;-89
2023/03/28 04:59:20;;;;;;;;;;;;;;;8.38;89.22;100492.94;4983870;28;19944;-89
2023/03/28 05:01:49;;;;;;;;;;;;;;;8.37;88.00;100493.75;4984196;28;19964;-89
2023/03/28 05:04:18;;;;;;;;;;;;;;;8.39;86.44;100491.25;4979668;28;19926;-89
2023/03/28 05:06:46;;;;;;;;;;;;;;;8.40;86.56;100485.28;4957878;28;19930;-88
2023/03/28 05:09:14;;;;;;;;;;;;;;;8.42;88.49;100486.22;4972793;28;19993;-90
2023/03/28 05:11:45;;;;;;;;;;;;;;;8.39;84.31;100476.63;4972645;28;19922;-88
2023/03/28 05:14:13;;;;;;;;;;;;;;;8.39;83.93;100473.19;4982442;28;19922;-89
2023/03/28 05:16:44;;;;;;;;;;;;;;;8.41;84.53;100471.59;4983110;28;19922;-88
2023/03/28 05:19:20;;;;;;;;;;;;;;;8.39;84.90;100465.47;4984318;28;19965;-87
2023/03/28 05:21:51;;;;;;;;;;;;;;;8.38;85.09;100464.59;4991859;28;19929;-87
2023/03/28 05:24:21;;;;;;;;;;;;;;;8.35;85.72;100461.03;4980157;28;19921;-88
2023/03/28 05:26:51;;;;;;;;;;;;;;;8.33;85.98;100460.09;4989351;28;19930;-86
2023/03/28 05:29:19;;;;;;;;;;;;;;;8.30;86.01;100457.41;4983053;28;20431;-88
2023/03/28 05:31:47;;;;;;;;;;;;;;;8.26;86.91;100458.13;4976527;28;19926;-85
2023/03/28 05:34:18;;;;;;;;;;;;;;;8.22;86.80;100458.84;4977618;28;19922;-85
2023/03/28 05:36:46;;;;;;;;;;;;;;;8.14;89.01;100458.59;4968423;28;19926;-83
2023/03/28 05:39:14;;;;;;;;;;;;;;;8.05;88.17;100450.53;4969547;28;20320;-83
2023/03/28 05:41:45;;;;;;;;;;;;;;;8.02;88.97;100450.41;4969571;28;19926;-80
2023/03/28 05:44:17;;;;;;;;;;;;;;;7.98;89.82;100454.59;4969208;28;19941;-84
2023/03/28 05:46:45;;;;;;;;;;;;;;;7.80;90.67;100441.94;4950790;29;19981;-82
2023/03/28 05:49:13;;;;;;;;;;;;;;;7.83;90.51;100456.63;4954433;29;19947;-82
2023/03/28 05:51:41;;;;;;;;;;;;;;;7.81;91.38;100451.44;4950684;29;19922;-83
2023/03/28 05:54:15;;;;;;;;;;;;;;;7.79;92.96;100457.34;4950911;29;19933;-82
2023/03/28 05:56:43;;;;;;;;;;;;;;;7.66;92.61;100462.06;4942226;29;20001;-85
2023/03/28 05:59:12;;;;;;;;;;;;;;;7.53;93.59;100462.41;4942587;28;19935;-83
2023/03/28 06:01:41;;;;;;;;;;;;;;;7.50;94.15;100467.47;4945868;29;20029;-82
2023/03/28 06:04:09;;;;;;;;;;;;;;;7.47;93.27;100469.94;4950314;29;19922;-82
2023/03/28 06:06:44;;;;;;;;;;;;;;;7.48;93.25;100457.09;4952843;29;20368;-83
2023/03/28 06:09:12;;;;;;;;;;;;;;;7.51;93.07;100456.34;4946047;29;19929;-83
2023/03/28 06:11:40;;;;;;;;;;;;;;;7.54;92.74;100461.63;4953751;29;19973;-87
2023/03/28 06:14:09;;;;;;;;;;;;;;;7.56;94.01;100459.97;4952478;29;19932;-87
2023/03/28 06:16:37;;;;;;;;;;;;;;;7.59;94.08;100460.06;4951942;28;19928;-85
2023/03/28 06:19:07;;;;;;;;;;;;;;;7.63;94.83;100456.81;4952867;29;19923;-86
2023/03/28 06:21:35;;;;;;;;;;;;;;;7.65;93.52;100457.75;4949545;29;19922;-84
2023/03/28 06:24:03;;;;;;;;;;;;;;;7.67;94.56;100452.63;4951836;29;19930;-83
2023/03/28 06:26:31;;;;;;;;;;;;;;;7.67;94.38;100450.94;4950898;29;20409;-83
2023/03/28 06:28:59;;;;;;;;;;;;;;;7.68;93.88;100455.25;4946761;29;20001;-86
2023/03/28 06:31:27;;;;;;;;;;;;;;;7.69;93.82;100449.28;4951516;29;19930;-86
2023/03/28 06:33:55;;;;;;;;;;;;;;;7.70;92.67;100450.19;4946492;29;20407;-86
2023/03/28 06:36:24;;;;;;;;;;;;;;;7.72;93.85;100445.97;4952198;29;19922;-86
2023/03/28 06:38:53;;;;;;;;;;;;;;;7.70;94.88;100435.59;4947505;29;20424;-86
2023/03/28 06:41:21;;;;;;;;;;;;;;;7.72;94.00;100435.66;4945184;29;20013;-85
2023/03/28 06:43:49;;;;;;;;;;;;;;;7.73;95.10;100437.41;4946800;29;20017;-86
2023/03/28 06:46:17;;;;;;;;;;;;;;;7.76;94.26;100433.25;4969946;28;19989;-84
2023/03/28 06:48:45;;;;;;;;;;;;;;;7.79;93.79;100436.72;4964619;28;20392;-84
2023/03/28 06:51:13;;;;;;;;;;;;;;;7.81;93.29;100440.25;4968141;28;20014;-86
2023/03/28 06:53:43;;;;;;;;;;;;;;;7.83;93.20;100430.88;4968595;28;19969;-85
2023/03/28 06:56:11;;;;;;;;;;;;;;;7.73;92.86;100417.66;4968677;28;19922;-88
2023/03/28 06:58:39;;;;;;;;;;;;;;;7.76;94.12;100433.25;4964578;28;20250;-87
2023/03/28 07:01:07;;;;;;;;;;;;;;;7.80;92.64;100443.66;4969220;28;20419;-87
2023/03/28 07:03:35;;;;;;;;;;;;;;;7.83;93.54;100443.75;4965613;28;19934;-87
2023/03/28 07:06:05;;;;;;;;;;;;;;;7.84;93.16;100440.38;4969010;28;19937;-88
2023/03/28 07:08:33;;;;;;;;;;;;;;;7.87;93.24;100435.31;4966207;28;20020;-87
2023/03/28 07:11:03;;;;;;;;;;;;;;;7.88;92.74;100429.31;4970824;28;19923;-87
2023/03/28 07:13:32;;;;;;;;;;;;;;;7.90;92.56;100432.84;4978365;28;19922;-89
2023/03/28 07:16:01;;;;;;;;;;;;;;;7.91;92.45;100426.88;4975273;28;19930;-88
2023/03/28 07:18:28;;;;;;;;;;;;;;;7.91;92.67;100422.59;4968960;28;20391;-88
2023/03/28 07:20:56;;;;;;;;;;;;;;;7.92;93.42;100423.47;4973215;28;20017;-89
2023/03/28 07:23:24;;;;;;;;;;;;;;;7.92;94.93;100420.88;4979493;28;19922;-88
2023/03/28 07:25:52;;;;;;;;;;;;;;;7.92;95.08;100411.44;4980685;28;19937;-87
2023/03/28 07:28:24;;;;;;;;;;;;;;;7.93;94.92;100409.78;4982048;28;19922;-86
2023/03/28 07:30:54;;;;;;;;;;;;;;;7.94;94.43;100411.50;4974257;28;19925;-88
2023/03/28 07:33:22;;;;;;;;;;;;;;;7.95;94.82;100401.28;4961243;28;19945;-86
2023/03/28 07:35:51;;;;;;;;;;;;;;;7.96;95.25;100394.41;4965451;28;19930;-86
2023/03/28 07:38:19;;;;;;;;;;;;;;;7.92;95.04;100387.41;4975243;28;20349;-86
2023/03/28 07:40:47;;;;;;;;;;;;;;;7.95;94.61;100388.41;4970992;28;19929;-87
2023/03/28 07:43:15;;;;;;;;;;;;;;;7.95;94.53;100384.94;4976935;28;19926;-87
2023/03/28 07:45:45;;;;;;;;;;;;;;;7.95;94.67;100382.38;4976682;28;19922;-87
2023/03/28 07:48:13;;;;;;;;;;;;;;;7.94;95.74;100375.44;4973610;28;19926;-88
2023/03/28 07:50:41;;;;;;;;;;;;;;;7.94;95.14;100370.28;4968753;28;19926;-87
2023/03/28 07:53:09;;;;;;;;;;;;;;;7.92;93.06;100362.50;4978202;28;20012;-84
2023/03/28 07:55:37;;;;;;;;;;;;;;;7.91;93.40;100359.91;4978083;28;19932;-88
2023/03/28 07:58:06;;;;;;;;;;;;;;;7.86;91.52;100357.16;4971216;28;19922;-91
2023/03/28 08:00:36;;;;;;;;;;;;;;;7.84;93.77;100351.09;4972670;28;19925;-88
2023/03/28 08:03:07;;;;;;;;;;;;;;;7.85;96.09;100351.94;4979643;28;20041;-88
2023/03/28 08:05:36;;;;;;;;;;;;;;;7.86;96.26;100340.84;4971526;28;19945;-87
2023/03/28 08:08:04;;;;;;;;;;;;;;;7.85;94.69;100341.66;4977750;28;19926;-87
2023/03/28 08:10:32;;;;;;;;;;;;;;;7.83;94.72;100327.84;4976132;28;19926;-86
2023/03/28 08:13:00;;;;;;;;;;;;;;;7.81;95.68;100322.66;4989312;28;19944;-85
2023/03/28 08:15:28;;;;;;;;;;;;;;;7.79;95.20;100321.72;4991674;28;19926;-88
2023/03/28 08:17:56;;;;;;;;;;;;;;;7.78;95.20;100308.78;4984502;28;19957;-87
2023/03/28 08:20:26;;;;;;;;;;;;;;;7.74;95.43;100300.06;4982907;28;19922;-86
2023/03/28 08:22:53;;;;;;;;;;;;;;;7.73;96.33;100306.06;4978464;28;19922;-86
2023/03/28 08:25:21;;;;;;;;;;;;;;;7.67;96.12;100293.88;4986104;28;19932;-89
2023/03/28 08:27:52;;;;;;;;;;;;;;;7.66;97.06;100299.81;4986205;28;19957;-89
2023/03/28 08:30:20;;;;;;;;;;;;;;;7.65;97.13;100294.63;4984418;28;19921;-83
2023/03/28 08:32:49;;;;;;;;;;;;;;;7.62;96.75;100294.53;4982685;28;19915;-85
2023/03/28 08:35:18;;;;;;;;;;;;;;;7.60;96.82;100291.00;4981859;28;19929;-89
2023/03/28 08:37:47;;;;;;;;;;;;;;;7.58;97.07;100285.81;4980417;28;20469;-86
2023/03/28 08:40:18;;;;;;;;;;;;;;;7.58;97.00;100285.81;4983734;28;19922;-88
2023/03/28 08:43:01;;;;;;;;;;;;;;;7.56;96.70;100279.75;4986643;28;20443;-88
2023/03/28 08:45:35;;;;;;;;;;;;;;;7.55;96.36;100277.97;4976019;28;19930;-85
2023/03/28 08:48:12;;;;;;;;;;;;;;;7.52;96.39;100272.75;4969443;28;19921;-89
2023/03/28 08:50:44;;;;;;;;;;;;;;;7.51;97.30;100270.97;4969024;28;19922;-84
2023/03/28 08:53:19;;;;;;;;;;;;;;;7.50;97.02;100276.97;4959550;28;19923;-87
2023/03/28 08:55:47;;;;;;;;;;;;;;;7.49;97.15;100275.19;4965089;28;19926;-85
2023/03/28 08:58:20;;;;;;;;;;;;;;;7.48;97.80;100265.72;4957945;28;19923;-86
2023/03/28 09:00:49;;;;;;;;;;;;;;;7.47;97.33;100264.00;4954976;28;19926;-86
2023/03/28 09:03:18;;;;;;;;;;;;;;;7.46;98.19;100262.22;4962975;29;19926;-84
2023/03/28 09:05:48;;;;;;;;;;;;;;;7.44;97.79;100258.72;4958285;28;19946;-86
2023/03/28 09:08:38;;;;;;;;;;;;;;;7.43;97.29;100262.13;4962246;28;19942;-89
2023/03/28 09:11:13;;;;;;;;;;;;;;;7.42;97.42;100260.38;4961065;28;19923;-86
2023/03/28 09:13:45;;;;;;;;;;;;;;;7.43;96.31;100262.13;4958384;28;19981;-89
2023/03/28 09:16:21;;;;;;;;;;;;;;;7.44;96.20;100261.28;4952654;28;20436;-90
2023/03/28 09:18:56;;;;;;;;;;;;;;;7.46;96.05;100251.94;4958384;28;19926;-88
2023/03/28 09:21:29;;;;;;;;;;;;;;;7.50;95.03;100256.38;4966125;28;19977;-87
2023/03/28 09:24:14;;;;;;;;;;;;;;;7.52;94.65;100244.44;4962351;28;19923;-86
2023/03/28 09:26:45;;;;;;;;;;;;;;;7.53;93.54;100236.72;4961684;29;19923;-88
2023/03/28 09:29:16;;;;;;;;;;;;;;;7.55;94.38;100244.50;4972544;28;19922;-89
2023/03/28 09:31:46;;;;;;;;;;;;;;;7.52;94.32;100247.88;4976633;28;19918;-88
2023/03/28 09:34:21;;;;;;;;;;;;;;;7.53;94.84;100246.16;4959606;28;19941;-86
2023/03/28 09:36:54;;;;;;;;;;;;;;;7.54;94.89;100247.94;4967640;28;19922;-90
2023/03/28 09:39:35;;;;;;;;;;;;;;;7.53;94.35;100253.88;4970830;28;19923;-88
2023/03/28 09:42:08;;;;;;;;;;;;;;;7.54;95.33;100255.66;4958093;28;19965;-89
2023/03/28 09:44:38;;;;;;;;;;;;;;;7.55;92.81;100245.38;4974690;28;19949;-89
2023/03/28 09:47:09;;;;;;;;;;;;;;;7.59;91.93;100254.09;4969690;28;19930;-88
2023/03/28 09:49:37;;;;;;;;;;;;;;;7.63;92.05;100253.38;4973481;28;19922;-89
2023/03/28 09:52:13;;;;;;;;;;;;;;;7.62;92.29;100251.63;4966822;28;19922;-88
2023/03/28 09:54:46;;;;;;;;;;;;;;;7.65;92.57;100259.47;4966299;28;19922;-88
2023/03/28 09:57:15;;;;;;;;;;;;;;;7.59;93.12;100241.22;4963683;28;19926;-89
2023/03/28 09:59:43;;;;;;;;;;;;;;;7.59;93.94;100248.94;4969159;28;19910;-88
2023/03/28 10:02:25;;;;;;;;;;;;;;;7.62;95.49;100248.16;4964468;28;19948;-85
2023/03/28 10:04:53;;;;;;;;;;;;;;;7.58;96.58;100241.16;4971507;28;19941;-86
2023/03/28 10:07:29;;;;;;;;;;;;;;;7.54;97.34;100242.78;4952875;28;19962;-85
2023/03/28 10:10:01;;;;;;;;;;;;;;;7.48;98.35;100238.28;4943379;28;19978;-87
2023/03/28 10:12:33;;;;;;;;;;;;;;;7.40;99.28;100241.41;4952567;28;20010;-85
2023/03/28 10:15:01;;;;;;;;;;;;;;;7.37;99.06;100241.31;4954324;28;19957;-83
2023/03/28 10:17:30;;;;;;;;;;;;;;;7.28;100.00;100227.34;4953010;28;19930;-81
2023/03/28 10:20:01;;;;;;;;;;;;;;;7.36;100.00;100234.44;4947007;29;19978;-84
2023/03/28 10:22:31;;;;;;;;;;;;;;;7.34;100.00;100234.38;4953908;28;19926;-82
2023/03/28 10:25:01;;;;;;;;;;;;;;;7.31;100.00;100235.16;4950093;28;20574;-82
2023/03/28 10:27:31;;;;;;;;;;;;;;;7.29;100.00;100231.66;4949387;28;20541;-83
2023/03/28 10:30:08;;;;;;;;;;;;;;;7.27;100.00;100235.84;4950285;28;19928;-80
2023/03/28 10:32:36;;;;;;;;;;;;;;;7.25;100.00;100237.50;4939591;28;19937;-83
2023/03/28 10:35:08;;;;;;;;;;;;;;;7.24;100.00;100227.16;4947469;28;19922;-82
2023/03/28 10:37:36;;;;;;;;;;;;;;;7.16;100.00;100214.03;4953103;28;19926;-82
2023/03/28 10:40:09;;;;;;;;;;;;;;;7.14;100.00;100220.81;4941838;28;19926;-80
2023/03/28 10:42:40;;;;;;;;;;;;;;;7.20;100.00;100228.75;4959630;28;19973;-81
2023/03/28 10:45:19;;;;;;;;;;;;;;;7.20;100.00;100228.75;4944786;28;19925;-80
2023/03/28 10:47:48;;;;;;;;;;;;;;;7.19;100.00;100228.69;4968761;28;19925;-83
2023/03/28 10:50:35;;;;;;;;;;;;;;;7.18;100.00;100227.81;4969785;28;19933;-82
2023/03/28 10:53:13;;;;;;;;;;;;;;;7.18;100.00;100214.97;4969032;28;19922;-81
2023/03/28 10:55:50;;;;;;;;;;;;;;;7.16;100.00;100208.88;4962780;28;19945;-82
2023/03/28 10:58:25;;;;;;;;;;;;;;;7.16;100.00;100195.16;4962391;28;19949;-82
2023/03/28 11:00:55;;;;;;;;;;;;;;;7.14;100.00;100198.53;4973199;28;19926;-80
2023/03/28 11:03:32;;;;;;;;;;;;;;;7.13;100.00;100195.94;4970306;28;19922;-82
2023/03/28 11:06:05;;;;;;;;;;;;;;;7.09;100.00;100189.78;4968601;28;19926;-81
2023/03/28 11:08:46;;;;;;;;;;;;;;;7.07;100.00;100188.00;4973824;28;19921;-81
2023/03/28 11:11:24;;;;;;;;;;;;;;;7.07;100.00;100193.13;4971268;28;20285;-80
2023/03/28 11:13:55;;;;;;;;;;;;;;;7.06;100.00;100183.69;4972536;28;20251;-80
2023/03/28 11:16:34;;;;;;;;;;;;;;;7.05;100.00;100184.47;4970218;28;19922;-80
2023/03/28 11:19:08;;;;;;;;;;;;;;;7.04;100.00;100180.19;4972664;28;19933;-80
2023/03/28 11:21:41;;;;;;;;;;;;;;;7.04;100.00;100180.19;4969677;28;20013;-81
2023/03/28 11:24:15;;;;;;;;;;;;;;;7.03;100.00;100188.69;4973674;28;19922;-80
2023/03/28 11:26:52;;;;;;;;;;;;;;;7.02;100.00;100184.38;4974314;28;19922;-81
2023/03/28 11:29:26;;;;;;;;;;;;;;;7.02;100.00;100186.97;4972334;28;19929;-81
2023/03/28 11:31:59;;;;;;;;;;;;;;;7.02;100.00;100182.69;4967851;28;19922;-79
2023/03/28 11:34:29;;;;;;;;;;;;;;;7.02;100.00;100186.97;4972502;28;19984;-79
2023/03/28 11:37:03;;;;;;;;;;;;;;;7.00;100.00;100179.19;4975705;28;19922;-83
2023/03/28 11:39:34;;;;;;;;;;;;;;;7.00;100.00;100180.88;4965406;28;19926;-79
2023/03/28 11:42:08;;;;;;;;;;;;;;;6.99;100.00;100168.84;4974470;28;20007;-81
2023/03/28 11:44:38;;;;;;;;;;;;;;;6.99;100.00;100166.28;4972111;28;19934;-79
2023/03/28 11:47:09;;;;;;;;;;;;;;;6.96;100.00;100161.03;4962885;28;19938;-79
2023/03/28 11:49:39;;;;;;;;;;;;;;;6.96;100.00;100161.03;4970035;28;19962;-81
2023/03/28 11:52:15;;;;;;;;;;;;;;;6.94;100.00;100163.56;4970387;28;19969;-79
2023/03/28 11:54:45;;;;;;;;;;;;;;;6.92;100.00;100154.91;4971596;28;20359;-80
2023/03/28 11:57:18;;;;;;;;;;;;;;;6.91;100.00;100159.16;4968989;28;20003;-78
2023/03/28 11:59:51;;;;;;;;;;;;;;;6.86;100.00;100155.56;4970643;28;20013;-79
2023/03/28 12:02:28;;;;;;;;;;;;;;;6.82;100.00;100145.97;4968609;28;20404;-81
2023/03/28 12:04:58;;;;;;;;;;;;;;;6.80;100.00;100149.31;4962347;28;20933;-79
2023/03/28 12:07:31;;;;;;;;;;;;;;;6.77;100.00;100162.09;4966945;28;19925;-83
2023/03/28 12:10:03;;;;;;;;;;;;;;;6.76;100.00;100160.31;4969635;28;20040;-80
2023/03/28 12:12:36;;;;;;;;;;;;;;;6.75;100.00;100162.03;4973025;28;19928;-82
2023/03/28 12:15:06;;;;;;;;;;;;;;;6.74;100.00;100160.28;4971444;28;19969;-80
2023/03/28 12:17:35;;;;;;;;;;;;;;;6.74;100.00;100152.56;4967789;28;19930;-79
2023/03/28 12:20:06;;;;;;;;;;;;;;;6.74;100.00;100134.56;4964557;28;19927;-80
2023/03/28 12:22:37;;;;;;;;;;;;;;;6.70;100.00;100138.72;4967958;28;20351;-83
2023/03/28 12:25:09;;;;;;;;;;;;;;;6.71;100.00;100137.00;4973585;28;19929;-78
2023/03/28 12:27:55;;;;;;;;;;;;;;;6.70;100.00;100119.84;4971987;28;19922;-82
2023/03/28 12:30:25;;;;;;;;;;;;;;;6.68;100.00;100118.91;4970698;28;20297;-82
2023/03/28 12:32:58;;;;;;;;;;;;;;;6.67;100.00;100112.03;4970314;28;20291;-79
2023/03/28 12:35:31;;;;;;;;;;;;;;;6.67;100.00;100117.19;4972995;28;20021;-78
2023/03/28 12:38:06;;;;;;;;;;;;;;;6.64;100.00;100106.78;4972207;28;20498;-81
2023/03/28 12:40:43;;;;;;;;;;;;;;;6.59;100.00;100109.19;4968692;28;19926;-79
2023/03/28 12:43:13;;;;;;;;;;;;;;;6.60;100.00;100100.66;4971717;28;19972;-80
2023/03/28 12:45:44;;;;;;;;;;;;;;;6.59;100.00;100104.03;4973134;28;19949;-79
2023/03/28 12:48:14;;;;;;;;;;;;;;;6.59;100.00;100093.75;4963895;28;19923;-79
2023/03/28 12:50:46;;;;;;;;;;;;;;;6.56;100.00;100085.97;4967833;28;19926;-79
2023/03/28 12:53:14;;;;;;;;;;;;;;;6.54;100.00;100089.28;4966452;28;20615;-81
2023/03/28 12:55:44;;;;;;;;;;;;;;;6.48;100.00;100083.13;4964953;28;19935;-81
2023/03/28 12:58:29;;;;;;;;;;;;;;;6.44;100.00;100068.41;4963047;28;19929;-80
2023/03/28 13:01:05;;;;;;;;;;;;;;;6.44;100.00;100067.56;4969281;28;20652;-82
2023/03/28 13:03:37;;;;;;;;;;;;;;;6.46;100.00;100061.63;4972619;28;19933;-80